Au Train, Michigan
Current Conditions -  °F | °C
As of 7:50 PM on Sunday 23 Nov 2014 (Local Time) from KSAW Reporting Station
Light Rain Light Rain  
Wind Chill: 35°   Ceiling: 200
Heat Index: 39°   Visibility: 0.25mi
Dew Point: 37°   Wind: 6mph
Humidity: 93%   Direction: 140°SE
Pressure: 29.39"   Gusts: NA
Location:  46.43°N, 86.84°W
Report Text: KSAW 240050Z 14005KT 1/4SM -RA FG OVC002 04/03 A2939
Loading
Personal Weather Stations






























Interactive Weather Map New forecast layout! Learn more

10-Day Weather Forecast

Advertisements
Track Severe Weather on mobile